Aviation Digital Data Service (ADDS)

Output produced by METARs form (1334 UTC 22 April 2021)
found at http://www.aviationweather.gov/metar/data/
 
KRNH 221120Z 2212/2312 23006KT P6SM SKC 
     FM221800 24011G16KT P6SM SCT250 
     FM230000 23007KT P6SM SKC 
     FM231100 19005KT P6SM -SHRA OVC050